createdAt,value
2023-04-02T00:01:46.899Z,5.20
2023-04-02T00:04:22.177Z,4.72
2023-04-02T00:06:55.655Z,5.43
2023-04-02T00:09:27.634Z,5.00
2023-04-02T00:11:56.676Z,5.03
2023-04-02T00:14:27.212Z,5.65
2023-04-02T00:16:58.005Z,6.70
2023-04-02T00:19:30.739Z,6.07
2023-04-02T00:22:00.047Z,7.10
2023-04-02T00:24:28.784Z,6.53
2023-04-02T00:26:57.872Z,6.30
2023-04-02T00:29:26.548Z,6.18
2023-04-02T00:31:55.739Z,6.00
2023-04-02T00:34:27.977Z,5.55
2023-04-02T00:36:56.525Z,5.72
2023-04-02T00:39:26.457Z,6.00
2023-04-02T00:41:58.805Z,6.03
2023-04-02T00:44:33.145Z,5.70
2023-04-02T00:47:05.040Z,5.95
2023-04-02T00:49:37.828Z,6.63
2023-04-02T00:52:08.424Z,6.53
2023-04-02T00:54:41.197Z,5.95
2023-04-02T00:57:16.217Z,6.25
2023-04-02T00:59:50.325Z,6.45
2023-04-02T01:02:26.620Z,6.78
2023-04-02T01:04:58.213Z,6.53
2023-04-02T01:07:42.206Z,6.00
2023-04-02T01:10:19.056Z,5.63
2023-04-02T01:12:52.571Z,6.25
2023-04-02T01:15:23.458Z,5.93
2023-04-02T01:18:04.811Z,5.35
2023-04-02T01:21:06.677Z,5.95
2023-04-02T01:23:42.050Z,5.90
2023-04-02T01:26:14.756Z,6.53
2023-04-02T01:28:57.216Z,5.75
2023-04-02T01:31:27.405Z,5.65
2023-04-02T01:33:56.716Z,5.80
2023-04-02T01:36:29.520Z,5.13
2023-04-02T01:39:03.135Z,5.07
2023-04-02T01:41:35.355Z,4.57
2023-04-02T01:44:07.834Z,5.55
2023-04-02T01:46:37.272Z,4.97
2023-04-02T01:49:11.931Z,4.70
2023-04-02T01:51:42.649Z,4.88
2023-04-02T01:54:11.418Z,5.53
2023-04-02T01:56:40.374Z,5.05
2023-04-02T01:59:11.116Z,5.65
2023-04-02T02:01:42.380Z,5.30
2023-04-02T02:04:13.814Z,5.13
2023-04-02T02:06:42.496Z,5.70
2023-04-02T02:09:14.570Z,5.47
2023-04-02T02:11:43.167Z,6.20
2023-04-02T02:14:16.508Z,5.47
2023-04-02T02:16:45.756Z,4.68
2023-04-02T02:19:20.395Z,4.75
2023-04-02T02:21:51.701Z,4.63
2023-04-02T02:24:21.771Z,3.95
2023-04-02T02:26:52.232Z,4.68
2023-04-02T02:29:23.537Z,3.65
2023-04-02T02:31:54.916Z,4.50
2023-04-02T02:34:24.394Z,4.47
2023-04-02T02:36:54.969Z,4.68
2023-04-02T02:39:26.239Z,4.68
2023-04-02T02:41:57.209Z,4.43
2023-04-02T02:44:29.213Z,4.18
2023-04-02T02:47:00.943Z,4.15
2023-04-02T02:49:30.777Z,4.90
2023-04-02T02:52:01.743Z,4.50
2023-04-02T02:54:31.987Z,4.75
2023-04-02T02:57:03.321Z,4.60
2023-04-02T02:59:33.685Z,4.10
2023-04-02T03:02:04.258Z,4.78
2023-04-02T03:04:35.666Z,4.55
2023-04-02T03:07:06.010Z,5.00
2023-04-02T03:09:39.381Z,4.97
2023-04-02T03:12:10.089Z,5.55
2023-04-02T03:14:42.403Z,4.35
2023-04-02T03:17:13.404Z,4.05
2023-04-02T03:19:46.210Z,4.35
2023-04-02T03:22:17.323Z,4.72
2023-04-02T03:24:49.979Z,4.55
2023-04-02T03:27:21.223Z,3.85
2023-04-02T03:29:56.532Z,4.32
2023-04-02T03:32:28.681Z,4.75
2023-04-02T03:34:59.122Z,4.80
2023-04-02T03:37:30.480Z,5.45
2023-04-02T03:40:02.320Z,4.55
2023-04-02T03:42:32.266Z,4.20
2023-04-02T03:45:05.049Z,4.22
2023-04-02T03:47:35.836Z,4.18
2023-04-02T03:50:07.314Z,4.20
2023-04-02T03:52:36.724Z,4.55
2023-04-02T03:55:11.803Z,4.40
2023-04-02T03:57:42.431Z,4.68
2023-04-02T04:00:17.387Z,5.43
2023-04-02T04:02:47.566Z,6.40
2023-04-02T04:05:22.613Z,5.43
2023-04-02T04:07:52.853Z,5.70
2023-04-02T04:10:24.524Z,6.15
2023-04-02T04:12:55.130Z,5.60
2023-04-02T04:15:27.937Z,5.38
2023-04-02T04:18:02.567Z,5.72
2023-04-02T04:20:34.932Z,5.07
2023-04-02T04:23:13.658Z,5.53
2023-04-02T04:25:42.639Z,5.25
2023-04-02T04:28:16.668Z,6.38
2023-04-02T04:30:52.178Z,5.60
2023-04-02T04:33:24.053Z,7.20
2023-04-02T04:35:55.371Z,6.80
2023-04-02T04:38:32.939Z,7.82
2023-04-02T04:41:04.123Z,7.25
2023-04-02T04:43:36.031Z,7.22
2023-04-02T04:46:08.222Z,6.97
2023-04-02T04:48:38.106Z,7.10
2023-04-02T04:51:08.566Z,7.07
2023-04-02T04:53:43.164Z,7.00
2023-04-02T04:56:19.170Z,6.82
2023-04-02T04:58:50.589Z,7.22
2023-04-02T05:01:22.375Z,7.28
2023-04-02T05:03:53.021Z,7.47
2023-04-02T05:06:25.313Z,7.60
2023-04-02T05:08:55.350Z,8.10
2023-04-02T05:11:28.293Z,8.63
2023-04-02T05:13:58.841Z,7.93
2023-04-02T05:16:33.053Z,8.05
2023-04-02T05:19:06.207Z,8.40
2023-04-02T05:21:37.165Z,8.40
2023-04-02T05:24:08.772Z,7.35
2023-04-02T05:26:41.461Z,8.55
2023-04-02T05:29:11.994Z,9.38
2023-04-02T05:31:45.073Z,8.52
2023-04-02T05:34:14.683Z,7.97
2023-04-02T05:36:43.255Z,8.13
2023-04-02T05:39:12.684Z,8.73
2023-04-02T05:41:42.123Z,8.65
2023-04-02T05:44:14.223Z,9.70
2023-04-02T05:46:47.751Z,9.10
2023-04-02T05:49:21.276Z,8.80
2023-04-02T05:51:52.774Z,8.10
2023-04-02T05:54:23.794Z,7.70
2023-04-02T05:56:54.573Z,7.72
2023-04-02T05:59:24.939Z,8.18
2023-04-02T06:01:58.983Z,8.13
2023-04-02T06:04:31.017Z,7.70
2023-04-02T06:07:01.126Z,7.72
2023-04-02T06:09:37.778Z,7.82
2023-04-02T06:12:13.491Z,8.63
2023-04-02T06:14:42.024Z,8.43
2023-04-02T06:17:13.817Z,9.15
2023-04-02T06:19:42.354Z,8.55
2023-04-02T06:22:12.870Z,8.15
2023-04-02T06:24:42.297Z,8.43
2023-04-02T06:27:14.129Z,8.98
2023-04-02T06:29:44.314Z,9.20
2023-04-02T06:32:14.823Z,9.63
2023-04-02T06:34:44.157Z,8.60
2023-04-02T06:37:19.525Z,7.72
2023-04-02T06:39:48.006Z,7.30
2023-04-02T06:42:19.825Z,7.53
2023-04-02T06:44:48.478Z,7.45
2023-04-02T06:47:24.804Z,7.00
2023-04-02T06:49:57.035Z,6.97
2023-04-02T06:52:27.595Z,7.85
2023-04-02T06:54:56.436Z,7.22
2023-04-02T06:57:25.283Z,7.40
2023-04-02T06:59:54.303Z,6.70
2023-04-02T07:02:28.826Z,7.25
2023-04-02T07:05:00.786Z,7.20
2023-04-02T07:07:29.570Z,6.82
2023-04-02T07:09:58.025Z,6.95
2023-04-02T07:12:27.213Z,6.65
2023-04-02T07:14:56.039Z,6.45
2023-04-02T07:17:25.947Z,5.72
2023-04-02T07:19:54.471Z,6.55
2023-04-02T07:22:23.029Z,5.68
2023-04-02T07:24:51.801Z,6.40
2023-04-02T07:27:20.354Z,6.95
2023-04-02T07:29:48.959Z,6.40
2023-04-02T07:32:17.636Z,6.65
2023-04-02T07:34:48.979Z,6.20
2023-04-02T07:37:17.557Z,6.18
2023-04-02T07:39:46.330Z,5.60
2023-04-02T07:42:14.992Z,5.15
2023-04-02T07:44:43.460Z,5.18
2023-04-02T07:47:11.907Z,5.82
2023-04-02T07:49:40.404Z,5.65
2023-04-02T07:52:10.429Z,5.10
2023-04-02T07:54:39.908Z,5.07
2023-04-02T07:57:08.409Z,5.45
2023-04-02T07:59:36.979Z,6.10
2023-04-02T08:02:06.042Z,5.82
2023-04-02T08:04:35.083Z,5.20
2023-04-02T08:07:03.859Z,5.45
2023-04-02T08:09:33.947Z,5.45
2023-04-02T08:12:02.696Z,5.28
2023-04-02T08:14:31.342Z,5.82
2023-04-02T08:17:00.261Z,5.82
2023-04-02T08:19:28.685Z,5.65
2023-04-02T08:21:57.179Z,5.32
2023-04-02T08:24:25.853Z,5.40
2023-04-02T08:26:55.691Z,5.68
2023-04-02T08:29:24.530Z,5.53
2023-04-02T08:31:53.156Z,5.22
2023-04-02T08:34:21.566Z,4.97
2023-04-02T08:36:50.057Z,4.85
2023-04-02T08:39:18.669Z,5.30
2023-04-02T08:41:50.639Z,5.65
2023-04-02T08:44:33.642Z,5.25
2023-04-02T08:47:06.022Z,5.20
2023-04-02T08:49:36.970Z,5.80
2023-04-02T08:52:05.467Z,4.90
2023-04-02T08:54:34.969Z,5.40
2023-04-02T08:57:06.410Z,5.28
2023-04-02T08:59:37.773Z,5.57
2023-04-02T09:02:14.306Z,5.10
2023-04-02T09:04:42.851Z,4.70
2023-04-02T09:07:13.721Z,5.22
2023-04-02T09:09:42.312Z,5.55
2023-04-02T09:12:17.576Z,5.28
2023-04-02T09:14:50.849Z,4.75
2023-04-02T09:17:21.227Z,4.85
2023-04-02T09:19:55.111Z,4.78
2023-04-02T09:22:25.204Z,4.47
2023-04-02T09:24:54.222Z,5.00
2023-04-02T09:27:23.674Z,5.32
2023-04-02T09:29:55.101Z,4.93
2023-04-02T09:32:35.870Z,4.72
2023-04-02T09:35:18.352Z,5.22
2023-04-02T09:37:47.718Z,4.50
2023-04-02T09:40:18.890Z,4.70
2023-04-02T09:42:47.410Z,4.55
2023-04-02T09:45:21.697Z,4.38
2023-04-02T09:47:50.638Z,4.05
2023-04-02T09:50:29.073Z,4.38
2023-04-02T09:52:57.635Z,3.97
2023-04-02T09:55:28.789Z,4.40
2023-04-02T09:58:12.772Z,4.78
2023-04-02T10:00:50.851Z,4.63
2023-04-02T10:03:23.466Z,4.75
2023-04-02T10:06:05.443Z,4.38
2023-04-02T10:08:34.175Z,4.43
2023-04-02T10:11:03.998Z,4.80
2023-04-02T10:13:33.620Z,3.72
2023-04-02T10:16:05.302Z,3.88
2023-04-02T10:18:41.230Z,4.07
2023-04-02T10:21:12.097Z,4.05
2023-04-02T10:23:40.583Z,4.10
2023-04-02T10:26:24.349Z,4.25
2023-04-02T10:29:01.235Z,4.65
2023-04-02T10:31:34.697Z,4.40
2023-04-02T10:34:04.746Z,4.80
2023-04-02T10:36:43.572Z,4.65
2023-04-02T10:39:14.445Z,4.80
2023-04-02T10:41:50.285Z,4.18
2023-04-02T10:44:24.423Z,5.15
2023-04-02T10:47:02.683Z,5.03
2023-04-02T10:49:35.014Z,5.05
2023-04-02T10:52:07.953Z,4.20
2023-04-02T10:54:41.451Z,4.15
2023-04-02T10:57:13.443Z,4.20
2023-04-02T10:59:43.614Z,5.07
2023-04-02T11:02:26.313Z,4.82
2023-04-02T11:04:57.196Z,4.50
2023-04-02T11:07:28.066Z,4.35
2023-04-02T11:09:58.313Z,4.55
2023-04-02T11:12:28.674Z,5.60
2023-04-02T11:14:57.977Z,5.25
2023-04-02T11:17:27.864Z,4.57
2023-04-02T11:19:56.676Z,4.20
2023-04-02T11:22:25.804Z,4.82
2023-04-02T11:24:54.821Z,5.00
2023-04-02T11:27:33.628Z,4.90
2023-04-02T11:30:05.384Z,4.28
2023-04-02T11:32:40.648Z,4.72
2023-04-02T11:35:27.551Z,4.25
2023-04-02T11:37:56.671Z,4.65
2023-04-02T11:40:40.071Z,4.90
2023-04-02T11:43:23.352Z,4.63
2023-04-02T11:45:56.308Z,4.57
2023-04-02T11:48:30.588Z,4.10
2023-04-02T11:50:59.400Z,3.80
2023-04-02T11:53:33.192Z,4.05
2023-04-02T11:56:09.151Z,3.75
2023-04-02T11:58:44.919Z,3.90
2023-04-02T12:01:20.011Z,3.70
2023-04-02T12:04:03.306Z,3.33
2023-04-02T12:06:39.781Z,3.60
2023-04-02T12:09:15.740Z,3.47
2023-04-02T12:11:44.695Z,3.03
2023-04-02T12:14:27.974Z,3.55
2023-04-02T12:16:56.803Z,3.17
2023-04-02T12:19:27.749Z,3.22
2023-04-02T12:21:56.484Z,3.38
2023-04-02T12:24:26.141Z,3.25
2023-04-02T12:27:08.794Z,3.55
2023-04-02T12:29:39.033Z,3.08
2023-04-02T12:32:18.554Z,4.10
2023-04-02T12:34:48.380Z,3.50
2023-04-02T12:37:22.181Z,3.50
2023-04-02T12:39:55.061Z,3.38
2023-04-02T12:42:28.258Z,3.42
2023-04-02T12:44:56.757Z,3.30
2023-04-02T12:47:25.536Z,3.20
2023-04-02T12:49:56.519Z,3.40
2023-04-02T12:52:28.937Z,3.33
2023-04-02T12:54:58.630Z,2.97
2023-04-02T12:57:36.274Z,3.92
2023-04-02T13:00:26.047Z,3.20
2023-04-02T13:03:01.163Z,3.38
2023-04-02T13:05:41.359Z,2.80
2023-04-02T13:08:17.910Z,3.05
2023-04-02T13:10:46.684Z,2.90
2023-04-02T13:13:17.949Z,3.13
2023-04-02T13:15:46.393Z,3.28
2023-04-02T13:18:20.912Z,3.10
2023-04-02T13:21:00.572Z,3.13
2023-04-02T13:23:38.848Z,3.25
2023-04-02T13:26:17.441Z,3.50
2023-04-02T13:28:46.170Z,2.95
2023-04-02T13:31:17.130Z,3.20
2023-04-02T13:33:45.600Z,2.97
2023-04-02T13:36:16.499Z,2.80
2023-04-02T13:38:44.979Z,2.47
2023-04-02T13:41:19.617Z,3.10
2023-04-02T13:43:48.103Z,3.00
2023-04-02T13:46:19.833Z,2.60
2023-04-02T13:48:48.306Z,2.80
2023-04-02T13:51:19.350Z,2.90
2023-04-02T13:53:49.132Z,2.78
2023-04-02T13:56:17.535Z,2.90
2023-04-02T13:58:47.317Z,2.90
2023-04-02T14:01:16.076Z,2.67
2023-04-02T14:03:45.424Z,2.67
2023-04-02T14:06:16.889Z,3.00
2023-04-02T14:08:50.748Z,3.05
2023-04-02T14:11:26.346Z,2.67
2023-04-02T14:14:03.854Z,2.75
2023-04-02T14:16:44.091Z,2.63
2023-04-02T14:19:19.757Z,2.72
2023-04-02T14:21:57.347Z,2.50
2023-04-02T14:24:31.699Z,2.70
2023-04-02T14:27:07.554Z,2.75
2023-04-02T14:29:39.857Z,2.70
2023-04-02T14:32:10.031Z,2.53
2023-04-02T14:34:41.923Z,2.28
2023-04-02T14:37:14.134Z,2.78
2023-04-02T14:39:47.628Z,2.50
2023-04-02T14:42:18.357Z,2.55
2023-04-02T14:44:50.942Z,2.28
2023-04-02T14:47:21.565Z,2.90
2023-04-02T14:49:54.641Z,2.28
2023-04-02T14:52:24.545Z,2.03
2023-04-02T14:54:55.480Z,2.17
2023-04-02T14:57:25.078Z,2.40
2023-04-02T14:59:58.864Z,2.30
2023-04-02T15:02:32.212Z,2.30
2023-04-02T15:05:02.559Z,2.25
2023-04-02T15:07:35.374Z,2.35
2023-04-02T15:10:08.080Z,2.15
2023-04-02T15:12:37.860Z,2.40
2023-04-02T15:15:09.799Z,2.22
2023-04-02T15:17:38.325Z,2.17
2023-04-02T15:20:14.386Z,2.10
2023-04-02T15:22:44.358Z,2.17
2023-04-02T15:25:19.692Z,2.10
2023-04-02T15:27:57.088Z,2.25
2023-04-02T15:30:27.047Z,2.10
2023-04-02T15:32:57.050Z,2.47
2023-04-02T15:35:32.612Z,2.47
2023-04-02T15:38:03.377Z,2.28
2023-04-02T15:40:35.612Z,2.35
2023-04-02T15:43:08.614Z,2.67
2023-04-02T15:45:45.928Z,2.47
2023-04-02T15:48:23.745Z,2.45
2023-04-02T15:51:04.713Z,2.53
2023-04-02T15:53:36.560Z,2.35
2023-04-02T15:56:17.947Z,2.60
2023-04-02T15:58:51.918Z,2.30
2023-04-02T16:01:24.160Z,2.38
2023-04-02T16:04:18.871Z,2.65
2023-04-02T16:06:58.084Z,2.58
2023-04-02T16:09:30.832Z,2.63
2023-04-02T16:12:03.484Z,2.72
2023-04-02T16:14:33.977Z,2.50
2023-04-02T16:17:17.479Z,2.35
2023-04-02T16:19:52.923Z,2.70
2023-04-02T16:22:24.806Z,2.58
2023-04-02T16:24:58.027Z,2.08
2023-04-02T16:27:30.994Z,2.28
2023-04-02T16:30:02.922Z,2.30
2023-04-02T16:32:41.033Z,2.65
2023-04-02T16:35:41.076Z,2.58
2023-04-02T16:38:09.088Z,2.53
2023-04-02T16:40:40.017Z,2.53
2023-04-02T16:43:14.637Z,2.65
2023-04-02T16:45:45.408Z,2.28
2023-04-02T16:48:16.237Z,2.88
2023-04-02T16:50:50.588Z,2.72
2023-04-02T16:53:22.681Z,2.53
2023-04-02T16:55:58.652Z,2.97
2023-04-02T16:58:34.767Z,2.95
2023-04-02T17:01:08.570Z,2.58
2023-04-02T17:03:55.190Z,2.75
2023-04-02T17:06:32.064Z,2.67
2023-04-02T17:09:04.718Z,2.95
2023-04-02T17:11:37.082Z,2.42
2023-04-02T17:14:07.952Z,2.25
2023-04-02T17:16:38.782Z,2.97
2023-04-02T17:19:10.029Z,2.47
2023-04-02T17:21:39.196Z,2.95
2023-04-02T17:24:17.840Z,2.65
2023-04-02T17:26:48.042Z,2.42
2023-04-02T17:29:20.856Z,2.42
2023-04-02T17:31:50.786Z,2.15
2023-04-02T17:34:24.266Z,2.50
2023-04-02T17:36:56.951Z,2.10
2023-04-02T17:39:32.577Z,2.63
2023-04-02T17:42:07.280Z,1.98
2023-04-02T17:44:44.832Z,2.30
2023-04-02T17:47:17.790Z,1.95
2023-04-02T17:49:50.818Z,2.42
2023-04-02T17:52:21.503Z,2.50
2023-04-02T17:54:57.068Z,2.60
2023-04-02T17:57:31.273Z,2.55
2023-04-02T18:00:13.894Z,2.90
2023-04-02T18:02:49.022Z,2.85
2023-04-02T18:05:22.096Z,2.83
2023-04-02T18:07:54.295Z,2.70
2023-04-02T18:10:25.018Z,3.20
2023-04-02T18:12:57.144Z,3.03
2023-04-02T18:15:47.382Z,2.65
2023-04-02T18:18:20.898Z,2.58
2023-04-02T18:20:52.349Z,2.95
2023-04-02T18:23:26.675Z,2.35
2023-04-02T18:25:57.588Z,2.97
2023-04-02T18:28:43.729Z,2.55
2023-04-02T18:31:19.053Z,3.30
2023-04-02T18:34:00.762Z,2.97
2023-04-02T18:36:33.525Z,3.38
2023-04-02T18:39:04.533Z,3.03
2023-04-02T18:41:39.496Z,3.55
2023-04-02T18:44:15.571Z,2.70
2023-04-02T18:46:48.017Z,2.92
2023-04-02T18:49:22.772Z,2.95
2023-04-02T18:51:52.765Z,3.10
2023-04-02T18:54:24.379Z,3.35
2023-04-02T18:56:52.940Z,3.55
2023-04-02T18:59:28.452Z,3.10
2023-04-02T19:01:59.603Z,3.20
2023-04-02T19:04:29.672Z,3.30
2023-04-02T19:07:02.199Z,3.35
2023-04-02T19:09:33.197Z,3.20
2023-04-02T19:12:02.593Z,3.67
2023-04-02T19:14:31.170Z,4.05
2023-04-02T19:17:04.894Z,3.60
2023-04-02T19:19:38.201Z,3.63
2023-04-02T19:22:16.590Z,3.53
2023-04-02T19:24:51.544Z,3.75
2023-04-02T19:27:23.695Z,4.03
2023-04-02T19:29:58.841Z,3.88
2023-04-02T19:32:34.597Z,3.70
2023-04-02T19:35:09.294Z,3.45
2023-04-02T19:37:41.493Z,3.92
2023-04-02T19:40:24.468Z,4.60
2023-04-02T19:42:54.206Z,3.92
2023-04-02T19:45:30.802Z,3.40
2023-04-02T19:48:02.335Z,4.18
2023-04-02T19:50:31.309Z,4.10
2023-04-02T19:53:00.260Z,3.83
2023-04-02T19:55:28.953Z,3.75
2023-04-02T19:58:04.483Z,3.88
2023-04-02T20:00:41.772Z,3.95
2023-04-02T20:03:11.772Z,3.97
2023-04-02T20:05:40.480Z,4.40
2023-04-02T20:08:09.031Z,4.35
2023-04-02T20:10:38.188Z,4.30
2023-04-02T20:13:07.138Z,4.95
2023-04-02T20:15:36.137Z,4.80
2023-04-02T20:18:04.903Z,4.57
2023-04-02T20:20:35.032Z,4.43
2023-04-02T20:23:03.851Z,4.90
2023-04-02T20:25:32.301Z,5.25
2023-04-02T20:28:03.773Z,5.10
2023-04-02T20:30:33.051Z,6.20
2023-04-02T20:33:02.402Z,5.88
2023-04-02T20:35:34.672Z,5.72
2023-04-02T20:38:06.897Z,5.07
2023-04-02T20:40:36.132Z,5.07
2023-04-02T20:43:04.953Z,5.25
2023-04-02T20:45:33.735Z,6.22
2023-04-02T20:48:02.449Z,6.72
2023-04-02T20:50:31.185Z,6.05
2023-04-02T20:53:00.226Z,6.30
2023-04-02T20:55:30.173Z,5.78
2023-04-02T20:57:58.800Z,5.10
2023-04-02T21:00:27.437Z,5.55
2023-04-02T21:02:56.198Z,5.22
2023-04-02T21:05:24.862Z,5.20
2023-04-02T21:07:53.428Z,4.70
2023-04-02T21:10:22.172Z,4.40
2023-04-02T21:12:52.187Z,4.95
2023-04-02T21:15:20.872Z,4.57
2023-04-02T21:17:49.514Z,4.47
2023-04-02T21:20:18.188Z,4.53
2023-04-02T21:22:46.761Z,4.28
2023-04-02T21:25:15.535Z,4.47
2023-04-02T21:27:45.710Z,4.35
2023-04-02T21:30:16.202Z,3.70
2023-04-02T21:32:44.890Z,4.00
2023-04-02T21:35:13.580Z,4.13
2023-04-02T21:37:43.049Z,4.07
2023-04-02T21:40:12.967Z,4.53
2023-04-02T21:42:41.461Z,3.95
2023-04-02T21:45:10.320Z,4.20
2023-04-02T21:47:40.324Z,4.15
2023-04-02T21:50:10.347Z,4.47
2023-04-02T21:52:38.970Z,4.65
2023-04-02T21:55:07.872Z,4.43
2023-04-02T21:57:36.489Z,3.95
2023-04-02T22:00:08.780Z,4.60
2023-04-02T22:02:37.435Z,4.60
2023-04-02T22:05:08.127Z,4.28
2023-04-02T22:07:36.783Z,4.32
2023-04-02T22:10:05.844Z,5.05
2023-04-02T22:12:34.532Z,4.33
2023-04-02T22:15:03.163Z,5.07
2023-04-02T22:17:31.825Z,5.43
2023-04-02T22:20:00.624Z,4.73
2023-04-02T22:22:30.758Z,4.63
2023-04-02T22:25:00.317Z,5.00
2023-04-02T22:27:28.828Z,4.60
2023-04-02T22:29:57.601Z,4.40
2023-04-02T22:32:26.151Z,4.70
2023-04-02T22:34:54.726Z,4.63
2023-04-02T22:37:23.658Z,4.87
2023-04-02T22:39:53.711Z,4.77
2023-04-02T22:42:22.258Z,4.17
2023-04-02T22:44:50.987Z,5.20
2023-04-02T22:47:19.790Z,5.10
2023-04-02T22:49:48.363Z,4.83
2023-04-02T22:52:17.299Z,5.07
2023-04-02T22:54:46.286Z,4.93
2023-04-02T22:57:16.765Z,4.85
2023-04-02T22:59:45.642Z,4.90
2023-04-02T23:02:14.200Z,5.20
2023-04-02T23:04:42.690Z,4.90
2023-04-02T23:07:11.550Z,5.07
2023-04-02T23:09:39.959Z,5.27
2023-04-02T23:12:08.546Z,5.03
2023-04-02T23:14:38.566Z,5.57
2023-04-02T23:17:07.052Z,4.80
2023-04-02T23:19:35.511Z,5.10
2023-04-02T23:22:04.020Z,5.53
2023-04-02T23:24:32.607Z,5.20
2023-04-02T23:27:01.262Z,5.67
2023-04-02T23:29:29.873Z,5.10
2023-04-02T23:32:00.023Z,5.30
2023-04-02T23:34:28.730Z,5.13
2023-04-02T23:36:57.419Z,5.00
2023-04-02T23:39:26.232Z,5.97
2023-04-02T23:41:54.765Z,4.63
2023-04-02T23:44:23.515Z,5.53
2023-04-02T23:46:52.188Z,5.50
2023-04-02T23:49:22.369Z,4.90
2023-04-02T23:51:51.348Z,5.20
2023-04-02T23:54:19.893Z,5.00
2023-04-02T23:56:48.543Z,5.30
2023-04-02T23:59:17.010Z,5.67
